sensor_id;sensor_type;location;lat;lon;timestamp;P1;durP1;ratioP1;P2;durP2;ratioP2
789;SDS011;378;48.844;9.156;2024-01-30T00:01:01;9.88;;;4.85;;
789;SDS011;378;48.844;9.156;2024-01-30T00:03:29;10.93;;;4.80;;
789;SDS011;378;48.844;9.156;2024-01-30T00:05:56;9.95;;;5.05;;
789;SDS011;378;48.844;9.156;2024-01-30T00:08:23;8.30;;;4.30;;
789;SDS011;378;48.844;9.156;2024-01-30T00:10:49;10.80;;;5.32;;
789;SDS011;378;48.844;9.156;2024-01-30T00:13:16;9.82;;;4.57;;
789;SDS011;378;48.844;9.156;2024-01-30T00:15:44;8.13;;;4.45;;
789;SDS011;378;48.844;9.156;2024-01-30T00:18:11;12.32;;;4.75;;
789;SDS011;378;48.844;9.156;2024-01-30T00:20:40;10.15;;;4.82;;
789;SDS011;378;48.844;9.156;2024-01-30T00:23:09;8.40;;;4.53;;
789;SDS011;378;48.844;9.156;2024-01-30T00:25:36;9.88;;;5.40;;
789;SDS011;378;48.844;9.156;2024-01-30T00:28:03;8.93;;;4.57;;
789;SDS011;378;48.844;9.156;2024-01-30T00:30:30;9.20;;;4.78;;
789;SDS011;378;48.844;9.156;2024-01-30T00:32:57;13.38;;;5.55;;
789;SDS011;378;48.844;9.156;2024-01-30T00:35:23;10.65;;;5.35;;
789;SDS011;378;48.844;9.156;2024-01-30T00:37:52;14.30;;;5.15;;
789;SDS011;378;48.844;9.156;2024-01-30T00:40:19;13.07;;;5.22;;
789;SDS011;378;48.844;9.156;2024-01-30T00:42:45;13.45;;;5.13;;
789;SDS011;378;48.844;9.156;2024-01-30T00:45:13;12.77;;;5.65;;
789;SDS011;378;48.844;9.156;2024-01-30T00:47:40;15.63;;;5.90;;
789;SDS011;378;48.844;9.156;2024-01-30T00:50:07;13.80;;;5.57;;
789;SDS011;378;48.844;9.156;2024-01-30T00:52:34;13.10;;;5.85;;
789;SDS011;378;48.844;9.156;2024-01-30T00:55:02;11.93;;;5.85;;
789;SDS011;378;48.844;9.156;2024-01-30T00:57:30;14.15;;;6.20;;
789;SDS011;378;48.844;9.156;2024-01-30T00:59:57;11.32;;;5.80;;
789;SDS011;378;48.844;9.156;2024-01-30T01:02:23;18.05;;;6.88;;
789;SDS011;378;48.844;9.156;2024-01-30T01:04:50;12.90;;;6.57;;
789;SDS011;378;48.844;9.156;2024-01-30T01:07:17;13.27;;;6.53;;
789;SDS011;378;48.844;9.156;2024-01-30T01:09:44;14.00;;;6.82;;
789;SDS011;378;48.844;9.156;2024-01-30T01:12:12;12.88;;;6.38;;
789;SDS011;378;48.844;9.156;2024-01-30T01:14:38;12.55;;;6.68;;
789;SDS011;378;48.844;9.156;2024-01-30T01:17:16;17.75;;;7.32;;
789;SDS011;378;48.844;9.156;2024-01-30T01:19:45;14.38;;;6.97;;
789;SDS011;378;48.844;9.156;2024-01-30T01:22:11;16.48;;;7.03;;
789;SDS011;378;48.844;9.156;2024-01-30T01:24:44;13.57;;;6.22;;
789;SDS011;378;48.844;9.156;2024-01-30T01:27:12;21.42;;;7.35;;
789;SDS011;378;48.844;9.156;2024-01-30T01:29:41;13.98;;;6.85;;
789;SDS011;378;48.844;9.156;2024-01-30T01:32:11;14.90;;;6.78;;
789;SDS011;378;48.844;9.156;2024-01-30T01:34:47;14.18;;;7.28;;
789;SDS011;378;48.844;9.156;2024-01-30T01:37:14;18.77;;;7.35;;
789;SDS011;378;48.844;9.156;2024-01-30T01:39:41;17.08;;;7.57;;
789;SDS011;378;48.844;9.156;2024-01-30T01:42:11;18.83;;;7.40;;
789;SDS011;378;48.844;9.156;2024-01-30T01:44:39;16.23;;;7.18;;
789;SDS011;378;48.844;9.156;2024-01-30T01:47:08;16.83;;;7.70;;
789;SDS011;378;48.844;9.156;2024-01-30T01:49:35;16.23;;;6.60;;
789;SDS011;378;48.844;9.156;2024-01-30T01:52:03;15.60;;;7.30;;
789;SDS011;378;48.844;9.156;2024-01-30T01:54:31;15.55;;;7.20;;
789;SDS011;378;48.844;9.156;2024-01-30T01:57:01;16.52;;;7.85;;
789;SDS011;378;48.844;9.156;2024-01-30T01:59:30;20.23;;;7.32;;
789;SDS011;378;48.844;9.156;2024-01-30T02:02:05;16.80;;;7.70;;
789;SDS011;378;48.844;9.156;2024-01-30T02:04:37;12.48;;;7.07;;
789;SDS011;378;48.844;9.156;2024-01-30T02:07:06;14.70;;;7.28;;
789;SDS011;378;48.844;9.156;2024-01-30T02:09:34;16.00;;;7.32;;
789;SDS011;378;48.844;9.156;2024-01-30T02:12:04;14.52;;;7.03;;
789;SDS011;378;48.844;9.156;2024-01-30T02:14:32;14.15;;;7.43;;
789;SDS011;378;48.844;9.156;2024-01-30T02:16:59;16.67;;;7.03;;
789;SDS011;378;48.844;9.156;2024-01-30T02:19:26;16.13;;;8.07;;
789;SDS011;378;48.844;9.156;2024-01-30T02:22:00;17.10;;;7.70;;
789;SDS011;378;48.844;9.156;2024-01-30T02:24:27;16.42;;;7.15;;
789;SDS011;378;48.844;9.156;2024-01-30T02:26:54;15.48;;;7.55;;
789;SDS011;378;48.844;9.156;2024-01-30T02:29:23;15.63;;;7.30;;
789;SDS011;378;48.844;9.156;2024-01-30T02:31:50;13.63;;;7.15;;
789;SDS011;378;48.844;9.156;2024-01-30T02:34:27;15.80;;;7.30;;
789;SDS011;378;48.844;9.156;2024-01-30T02:37:21;15.93;;;6.82;;
789;SDS011;378;48.844;9.156;2024-01-30T02:39:53;13.55;;;7.40;;
789;SDS011;378;48.844;9.156;2024-01-30T02:42:27;12.30;;;6.68;;
789;SDS011;378;48.844;9.156;2024-01-30T02:45:10;18.02;;;7.57;;
789;SDS011;378;48.844;9.156;2024-01-30T02:47:38;18.05;;;7.50;;
789;SDS011;378;48.844;9.156;2024-01-30T02:50:17;14.52;;;7.22;;
789;SDS011;378;48.844;9.156;2024-01-30T02:52:51;14.10;;;6.65;;
789;SDS011;378;48.844;9.156;2024-01-30T02:55:43;13.43;;;6.95;;
789;SDS011;378;48.844;9.156;2024-01-30T02:58:10;14.82;;;7.35;;
789;SDS011;378;48.844;9.156;2024-01-30T03:00:43;14.10;;;6.45;;
789;SDS011;378;48.844;9.156;2024-01-30T03:03:12;12.40;;;6.95;;
789;SDS011;378;48.844;9.156;2024-01-30T03:05:41;15.07;;;6.68;;
789;SDS011;378;48.844;9.156;2024-01-30T03:08:15;12.32;;;6.32;;
789;SDS011;378;48.844;9.156;2024-01-30T03:10:48;12.85;;;6.55;;
789;SDS011;378;48.844;9.156;2024-01-30T03:13:30;13.50;;;7.05;;
789;SDS011;378;48.844;9.156;2024-01-30T03:16:05;13.90;;;6.55;;
789;SDS011;378;48.844;9.156;2024-01-30T03:18:50;19.38;;;6.50;;
789;SDS011;378;48.844;9.156;2024-01-30T03:21:29;11.32;;;6.60;;
789;SDS011;378;48.844;9.156;2024-01-30T03:24:12;13.35;;;6.57;;
789;SDS011;378;48.844;9.156;2024-01-30T03:26:45;14.75;;;6.15;;
789;SDS011;378;48.844;9.156;2024-01-30T03:29:26;14.57;;;6.55;;
789;SDS011;378;48.844;9.156;2024-01-30T03:31:53;11.90;;;5.70;;
789;SDS011;378;48.844;9.156;2024-01-30T03:34:25;11.80;;;6.60;;
789;SDS011;378;48.844;9.156;2024-01-30T03:37:06;11.57;;;6.07;;
789;SDS011;378;48.844;9.156;2024-01-30T03:39:44;13.60;;;7.00;;
789;SDS011;378;48.844;9.156;2024-01-30T03:42:23;13.88;;;6.72;;
789;SDS011;378;48.844;9.156;2024-01-30T03:44:51;12.85;;;6.63;;
789;SDS011;378;48.844;9.156;2024-01-30T03:47:20;13.65;;;7.00;;
789;SDS011;378;48.844;9.156;2024-01-30T03:49:52;13.43;;;6.43;;
789;SDS011;378;48.844;9.156;2024-01-30T03:52:29;14.43;;;7.07;;
789;SDS011;378;48.844;9.156;2024-01-30T03:54:58;13.25;;;6.82;;
789;SDS011;378;48.844;9.156;2024-01-30T03:57:30;16.13;;;7.00;;
789;SDS011;378;48.844;9.156;2024-01-30T04:00:13;14.63;;;6.72;;
789;SDS011;378;48.844;9.156;2024-01-30T04:02:55;10.57;;;6.13;;
789;SDS011;378;48.844;9.156;2024-01-30T04:05:26;11.57;;;6.00;;
789;SDS011;378;48.844;9.156;2024-01-30T04:08:05;12.20;;;6.90;;
789;SDS011;378;48.844;9.156;2024-01-30T04:10:51;13.05;;;6.38;;
789;SDS011;378;48.844;9.156;2024-01-30T04:13:24;14.23;;;6.18;;
789;SDS011;378;48.844;9.156;2024-01-30T04:15:56;12.38;;;6.63;;
789;SDS011;378;48.844;9.156;2024-01-30T04:18:23;14.32;;;6.70;;
789;SDS011;378;48.844;9.156;2024-01-30T04:20:53;13.55;;;6.47;;
789;SDS011;378;48.844;9.156;2024-01-30T04:23:30;13.02;;;6.47;;
789;SDS011;378;48.844;9.156;2024-01-30T04:26:07;16.27;;;6.57;;
789;SDS011;378;48.844;9.156;2024-01-30T04:28:34;11.00;;;5.95;;
789;SDS011;378;48.844;9.156;2024-01-30T04:31:08;12.48;;;6.57;;
789;SDS011;378;48.844;9.156;2024-01-30T04:33:36;10.25;;;6.03;;
789;SDS011;378;48.844;9.156;2024-01-30T04:36:07;12.30;;;5.97;;
789;SDS011;378;48.844;9.156;2024-01-30T04:38:36;14.65;;;6.60;;
789;SDS011;378;48.844;9.156;2024-01-30T04:41:03;14.18;;;6.72;;
789;SDS011;378;48.844;9.156;2024-01-30T04:43:43;16.52;;;7.10;;
789;SDS011;378;48.844;9.156;2024-01-30T04:46:22;14.63;;;6.72;;
789;SDS011;378;48.844;9.156;2024-01-30T04:48:59;18.92;;;7.20;;
789;SDS011;378;48.844;9.156;2024-01-30T04:51:29;12.60;;;6.60;;
789;SDS011;378;48.844;9.156;2024-01-30T04:53:59;14.25;;;7.00;;
789;SDS011;378;48.844;9.156;2024-01-30T04:56:35;14.10;;;7.05;;
789;SDS011;378;48.844;9.156;2024-01-30T04:59:17;13.27;;;6.57;;
789;SDS011;378;48.844;9.156;2024-01-30T05:01:50;13.38;;;6.65;;
789;SDS011;378;48.844;9.156;2024-01-30T05:04:33;12.35;;;6.60;;
789;SDS011;378;48.844;9.156;2024-01-30T05:07:12;13.40;;;6.90;;
789;SDS011;378;48.844;9.156;2024-01-30T05:09:41;15.10;;;6.72;;
789;SDS011;378;48.844;9.156;2024-01-30T05:12:19;13.13;;;7.28;;
789;SDS011;378;48.844;9.156;2024-01-30T05:14:48;11.52;;;6.32;;
789;SDS011;378;48.844;9.156;2024-01-30T05:17:15;16.05;;;6.57;;
789;SDS011;378;48.844;9.156;2024-01-30T05:19:51;11.63;;;6.90;;
789;SDS011;378;48.844;9.156;2024-01-30T05:22:30;15.45;;;6.60;;
789;SDS011;378;48.844;9.156;2024-01-30T05:25:11;12.13;;;6.63;;
789;SDS011;378;48.844;9.156;2024-01-30T05:28:03;16.25;;;6.45;;
789;SDS011;378;48.844;9.156;2024-01-30T05:30:48;12.68;;;6.85;;
789;SDS011;378;48.844;9.156;2024-01-30T05:33:24;13.05;;;6.90;;
789;SDS011;378;48.844;9.156;2024-01-30T05:36:01;14.77;;;6.22;;
789;SDS011;378;48.844;9.156;2024-01-30T05:41:22;13.45;;;6.30;;
789;SDS011;378;48.844;9.156;2024-01-30T05:44:10;12.82;;;6.40;;
789;SDS011;378;48.844;9.156;2024-01-30T05:46:59;12.52;;;6.43;;
789;SDS011;378;48.844;9.156;2024-01-30T05:49:38;13.65;;;7.00;;
789;SDS011;378;48.844;9.156;2024-01-30T05:52:09;11.43;;;6.40;;
789;SDS011;378;48.844;9.156;2024-01-30T05:54:44;12.75;;;6.55;;
789;SDS011;378;48.844;9.156;2024-01-30T05:57:10;11.57;;;6.32;;
789;SDS011;378;48.844;9.156;2024-01-30T05:59:37;12.10;;;6.25;;
789;SDS011;378;48.844;9.156;2024-01-30T06:02:05;16.50;;;6.63;;
789;SDS011;378;48.844;9.156;2024-01-30T06:04:32;12.55;;;6.60;;
789;SDS011;378;48.844;9.156;2024-01-30T06:07:05;11.75;;;6.45;;
789;SDS011;378;48.844;9.156;2024-01-30T06:09:35;14.20;;;6.72;;
789;SDS011;378;48.844;9.156;2024-01-30T06:12:06;10.35;;;5.82;;
789;SDS011;378;48.844;9.156;2024-01-30T06:14:33;12.20;;;6.25;;
789;SDS011;378;48.844;9.156;2024-01-30T06:17:00;10.35;;;5.88;;
789;SDS011;378;48.844;9.156;2024-01-30T06:19:30;15.18;;;6.10;;
789;SDS011;378;48.844;9.156;2024-01-30T06:21:59;12.38;;;5.85;;
789;SDS011;378;48.844;9.156;2024-01-30T06:24:32;12.70;;;6.03;;
789;SDS011;378;48.844;9.156;2024-01-30T06:27:09;11.45;;;6.18;;
789;SDS011;378;48.844;9.156;2024-01-30T06:30:11;11.65;;;6.00;;
789;SDS011;378;48.844;9.156;2024-01-30T06:32:39;10.25;;;6.05;;
789;SDS011;378;48.844;9.156;2024-01-30T06:35:08;16.40;;;6.80;;
789;SDS011;378;48.844;9.156;2024-01-30T06:37:35;15.55;;;6.53;;
789;SDS011;378;48.844;9.156;2024-01-30T06:40:02;10.50;;;5.85;;
789;SDS011;378;48.844;9.156;2024-01-30T06:42:30;12.95;;;6.63;;
789;SDS011;378;48.844;9.156;2024-01-30T06:45:12;13.57;;;6.47;;
789;SDS011;378;48.844;9.156;2024-01-30T06:47:40;10.20;;;5.68;;
789;SDS011;378;48.844;9.156;2024-01-30T07:14:13;15.20;;;7.03;;
789;SDS011;378;48.844;9.156;2024-01-30T07:16:40;18.45;;;7.38;;
789;SDS011;378;48.844;9.156;2024-01-30T07:19:07;16.42;;;7.05;;
789;SDS011;378;48.844;9.156;2024-01-30T07:21:42;13.40;;;6.90;;
789;SDS011;378;48.844;9.156;2024-01-30T07:24:11;16.98;;;6.95;;
789;SDS011;378;48.844;9.156;2024-01-30T07:26:39;16.23;;;6.95;;
789;SDS011;378;48.844;9.156;2024-01-30T07:29:07;14.55;;;6.65;;
789;SDS011;378;48.844;9.156;2024-01-30T07:31:34;17.02;;;7.57;;
789;SDS011;378;48.844;9.156;2024-01-30T07:34:01;16.45;;;7.20;;
789;SDS011;378;48.844;9.156;2024-01-30T07:36:31;14.30;;;7.30;;
789;SDS011;378;48.844;9.156;2024-01-30T07:39:00;16.67;;;8.55;;
789;SDS011;378;48.844;9.156;2024-01-30T07:41:32;16.23;;;7.80;;
789;SDS011;378;48.844;9.156;2024-01-30T07:44:02;13.18;;;6.93;;
789;SDS011;378;48.844;9.156;2024-01-30T07:46:30;15.27;;;7.63;;
789;SDS011;378;48.844;9.156;2024-01-30T07:48:57;15.48;;;7.40;;
789;SDS011;378;48.844;9.156;2024-01-30T07:51:37;15.98;;;7.40;;
789;SDS011;378;48.844;9.156;2024-01-30T07:54:04;14.45;;;7.05;;
789;SDS011;378;48.844;9.156;2024-01-30T07:56:38;11.15;;;7.15;;
789;SDS011;378;48.844;9.156;2024-01-30T07:59:05;17.27;;;7.60;;
789;SDS011;378;48.844;9.156;2024-01-30T08:01:35;12.88;;;6.93;;
789;SDS011;378;48.844;9.156;2024-01-30T08:04:02;15.23;;;7.68;;
789;SDS011;378;48.844;9.156;2024-01-30T08:06:32;17.13;;;7.15;;
789;SDS011;378;48.844;9.156;2024-01-30T08:09:13;16.80;;;7.60;;
789;SDS011;378;48.844;9.156;2024-01-30T08:11:43;12.82;;;6.72;;
789;SDS011;378;48.844;9.156;2024-01-30T08:14:14;12.32;;;6.65;;
789;SDS011;378;48.844;9.156;2024-01-30T08:16:52;12.30;;;6.47;;
789;SDS011;378;48.844;9.156;2024-01-30T08:19:21;13.02;;;6.95;;
789;SDS011;378;48.844;9.156;2024-01-30T08:21:48;12.52;;;6.82;;
789;SDS011;378;48.844;9.156;2024-01-30T08:24:20;12.05;;;7.07;;
789;SDS011;378;48.844;9.156;2024-01-30T08:27:08;11.80;;;6.45;;
789;SDS011;378;48.844;9.156;2024-01-30T08:29:48;12.30;;;6.55;;
789;SDS011;378;48.844;9.156;2024-01-30T08:32:30;11.40;;;6.25;;
789;SDS011;378;48.844;9.156;2024-01-30T08:35:11;13.93;;;6.80;;
789;SDS011;378;48.844;9.156;2024-01-30T08:37:49;13.98;;;6.05;;
789;SDS011;378;48.844;9.156;2024-01-30T08:40:25;11.50;;;6.50;;
789;SDS011;378;48.844;9.156;2024-01-30T08:43:01;13.20;;;6.15;;
789;SDS011;378;48.844;9.156;2024-01-30T08:45:45;12.50;;;6.50;;
789;SDS011;378;48.844;9.156;2024-01-30T08:48:33;16.90;;;6.72;;
789;SDS011;378;48.844;9.156;2024-01-30T08:51:04;10.73;;;6.22;;
789;SDS011;378;48.844;9.156;2024-01-30T08:53:50;13.98;;;6.85;;
789;SDS011;378;48.844;9.156;2024-01-30T08:56:32;10.77;;;6.47;;
789;SDS011;378;48.844;9.156;2024-01-30T08:59:02;14.40;;;6.72;;
789;SDS011;378;48.844;9.156;2024-01-30T09:01:29;14.73;;;6.97;;
789;SDS011;378;48.844;9.156;2024-01-30T09:06:50;16.63;;;7.22;;
789;SDS011;378;48.844;9.156;2024-01-30T09:09:47;15.82;;;6.40;;
789;SDS011;378;48.844;9.156;2024-01-30T09:12:19;19.75;;;6.90;;
789;SDS011;378;48.844;9.156;2024-01-30T09:14:47;14.80;;;7.03;;
789;SDS011;378;48.844;9.156;2024-01-30T09:17:27;15.43;;;6.38;;
789;SDS011;378;48.844;9.156;2024-01-30T09:19:57;16.13;;;6.05;;
789;SDS011;378;48.844;9.156;2024-01-30T09:22:26;13.02;;;6.30;;
789;SDS011;378;48.844;9.156;2024-01-30T09:25:02;13.65;;;6.15;;
789;SDS011;378;48.844;9.156;2024-01-30T09:44:29;14.25;;;7.00;;
789;SDS011;378;48.844;9.156;2024-01-30T09:46:56;12.15;;;6.18;;
789;SDS011;378;48.844;9.156;2024-01-30T09:49:28;13.73;;;6.10;;
789;SDS011;378;48.844;9.156;2024-01-30T09:51:56;13.90;;;6.32;;
789;SDS011;378;48.844;9.156;2024-01-30T09:54:24;11.65;;;5.90;;
789;SDS011;378;48.844;9.156;2024-01-30T09:56:51;12.13;;;5.82;;
789;SDS011;378;48.844;9.156;2024-01-30T09:59:18;12.25;;;5.90;;
789;SDS011;378;48.844;9.156;2024-01-30T10:01:46;11.43;;;6.18;;
789;SDS011;378;48.844;9.156;2024-01-30T10:04:13;9.65;;;5.60;;
789;SDS011;378;48.844;9.156;2024-01-30T10:06:40;15.95;;;5.90;;
789;SDS011;378;48.844;9.156;2024-01-30T10:09:08;9.65;;;5.80;;
789;SDS011;378;48.844;9.156;2024-01-30T10:11:35;12.77;;;5.90;;
789;SDS011;378;48.844;9.156;2024-01-30T10:14:02;13.13;;;6.15;;
789;SDS011;378;48.844;9.156;2024-01-30T10:16:29;11.27;;;5.82;;
789;SDS011;378;48.844;9.156;2024-01-30T10:18:57;10.27;;;6.03;;
789;SDS011;378;48.844;9.156;2024-01-30T10:21:24;8.98;;;5.28;;
789;SDS011;378;48.844;9.156;2024-01-30T10:23:51;10.38;;;5.75;;
789;SDS011;378;48.844;9.156;2024-01-30T10:26:18;10.93;;;6.10;;
789;SDS011;378;48.844;9.156;2024-01-30T10:28:45;11.52;;;6.43;;
789;SDS011;378;48.844;9.156;2024-01-30T10:31:15;9.32;;;5.15;;
789;SDS011;378;48.844;9.156;2024-01-30T10:33:43;12.10;;;5.10;;
789;SDS011;378;48.844;9.156;2024-01-30T10:36:13;12.15;;;6.30;;
789;SDS011;378;48.844;9.156;2024-01-30T10:38:41;9.57;;;5.13;;
789;SDS011;378;48.844;9.156;2024-01-30T10:41:11;11.65;;;6.30;;
789;SDS011;378;48.844;9.156;2024-01-30T10:43:41;13.95;;;6.55;;
789;SDS011;378;48.844;9.156;2024-01-30T10:46:15;13.50;;;6.03;;
789;SDS011;378;48.844;9.156;2024-01-30T10:48:46;13.50;;;6.22;;
789;SDS011;378;48.844;9.156;2024-01-30T10:51:23;14.50;;;6.13;;
789;SDS011;378;48.844;9.156;2024-01-30T10:53:52;10.07;;;5.85;;
789;SDS011;378;48.844;9.156;2024-01-30T10:56:19;16.48;;;6.57;;
789;SDS011;378;48.844;9.156;2024-01-30T10:58:48;13.80;;;6.88;;
789;SDS011;378;48.844;9.156;2024-01-30T11:01:16;14.23;;;7.28;;
789;SDS011;378;48.844;9.156;2024-01-30T11:03:43;16.92;;;7.60;;
789;SDS011;378;48.844;9.156;2024-01-30T11:06:10;13.60;;;6.72;;
789;SDS011;378;48.844;9.156;2024-01-30T11:08:40;13.57;;;6.95;;
789;SDS011;378;48.844;9.156;2024-01-30T11:11:08;12.15;;;7.05;;
789;SDS011;378;48.844;9.156;2024-01-30T11:13:35;16.67;;;7.22;;
789;SDS011;378;48.844;9.156;2024-01-30T11:16:03;14.23;;;6.85;;
789;SDS011;378;48.844;9.156;2024-01-30T11:18:31;15.23;;;6.95;;
789;SDS011;378;48.844;9.156;2024-01-30T11:20:59;14.40;;;6.15;;
789;SDS011;378;48.844;9.156;2024-01-30T11:23:27;14.38;;;6.75;;
789;SDS011;378;48.844;9.156;2024-01-30T11:25:56;12.05;;;6.75;;
789;SDS011;378;48.844;9.156;2024-01-30T11:28:23;13.90;;;6.55;;
789;SDS011;378;48.844;9.156;2024-01-30T11:30:50;16.88;;;7.35;;
789;SDS011;378;48.844;9.156;2024-01-30T11:33:26;14.38;;;6.80;;
789;SDS011;378;48.844;9.156;2024-01-30T11:35:56;14.60;;;7.53;;
789;SDS011;378;48.844;9.156;2024-01-30T11:38:24;18.88;;;7.00;;
789;SDS011;378;48.844;9.156;2024-01-30T11:40:53;19.23;;;7.15;;
789;SDS011;378;48.844;9.156;2024-01-30T11:43:22;12.73;;;6.75;;
789;SDS011;378;48.844;9.156;2024-01-30T11:45:49;12.55;;;6.53;;
789;SDS011;378;48.844;9.156;2024-01-30T11:48:16;15.80;;;7.68;;
789;SDS011;378;48.844;9.156;2024-01-30T11:50:43;11.02;;;6.15;;
789;SDS011;378;48.844;9.156;2024-01-30T11:53:10;12.80;;;6.75;;
789;SDS011;378;48.844;9.156;2024-01-30T11:55:37;10.52;;;5.50;;
789;SDS011;378;48.844;9.156;2024-01-30T11:58:06;11.85;;;6.20;;
789;SDS011;378;48.844;9.156;2024-01-30T12:00:34;12.05;;;6.15;;
789;SDS011;378;48.844;9.156;2024-01-30T12:03:00;10.25;;;5.88;;
789;SDS011;378;48.844;9.156;2024-01-30T12:05:28;13.75;;;6.13;;
789;SDS011;378;48.844;9.156;2024-01-30T12:07:55;13.05;;;6.07;;
789;SDS011;378;48.844;9.156;2024-01-30T12:10:23;11.50;;;5.97;;
789;SDS011;378;48.844;9.156;2024-01-30T12:12:51;11.70;;;6.05;;
789;SDS011;378;48.844;9.156;2024-01-30T12:15:21;10.63;;;6.35;;
789;SDS011;378;48.844;9.156;2024-01-30T12:17:48;13.95;;;5.95;;
789;SDS011;378;48.844;9.156;2024-01-30T12:20:17;9.15;;;6.00;;
789;SDS011;378;48.844;9.156;2024-01-30T12:22:46;16.80;;;6.57;;
789;SDS011;378;48.844;9.156;2024-01-30T12:25:15;12.43;;;6.43;;
789;SDS011;378;48.844;9.156;2024-01-30T12:27:43;11.55;;;5.75;;
789;SDS011;378;48.844;9.156;2024-01-30T12:30:11;12.18;;;6.28;;
789;SDS011;378;48.844;9.156;2024-01-30T12:32:41;11.52;;;6.10;;
789;SDS011;378;48.844;9.156;2024-01-30T12:35:09;9.73;;;5.60;;
789;SDS011;378;48.844;9.156;2024-01-30T12:37:36;11.35;;;6.15;;
789;SDS011;378;48.844;9.156;2024-01-30T12:40:04;11.27;;;6.45;;
789;SDS011;378;48.844;9.156;2024-01-30T12:42:34;13.98;;;6.70;;
789;SDS011;378;48.844;9.156;2024-01-30T12:45:02;12.38;;;6.32;;
789;SDS011;378;48.844;9.156;2024-01-30T12:47:29;12.20;;;6.32;;
789;SDS011;378;48.844;9.156;2024-01-30T12:49:57;14.50;;;6.85;;
789;SDS011;378;48.844;9.156;2024-01-30T12:52:25;13.25;;;6.60;;
789;SDS011;378;48.844;9.156;2024-01-30T12:54:52;15.95;;;7.70;;
789;SDS011;378;48.844;9.156;2024-01-30T12:57:19;13.25;;;6.78;;
789;SDS011;378;48.844;9.156;2024-01-30T12:59:46;14.43;;;6.18;;
789;SDS011;378;48.844;9.156;2024-01-30T13:02:13;13.15;;;6.25;;
789;SDS011;378;48.844;9.156;2024-01-30T13:04:41;15.10;;;6.30;;
789;SDS011;378;48.844;9.156;2024-01-30T13:07:10;14.48;;;7.05;;
789;SDS011;378;48.844;9.156;2024-01-30T13:09:37;14.80;;;6.15;;
789;SDS011;378;48.844;9.156;2024-01-30T13:12:04;10.38;;;6.00;;
789;SDS011;378;48.844;9.156;2024-01-30T13:14:32;11.00;;;6.50;;
789;SDS011;378;48.844;9.156;2024-01-30T13:17:01;13.07;;;6.03;;
789;SDS011;378;48.844;9.156;2024-01-30T13:19:28;13.23;;;6.88;;
789;SDS011;378;48.844;9.156;2024-01-30T13:21:55;12.35;;;6.05;;
789;SDS011;378;48.844;9.156;2024-01-30T13:24:23;11.65;;;5.97;;
789;SDS011;378;48.844;9.156;2024-01-30T13:26:50;19.65;;;7.70;;
789;SDS011;378;48.844;9.156;2024-01-30T13:29:18;12.45;;;7.25;;
789;SDS011;378;48.844;9.156;2024-01-30T13:31:45;13.18;;;6.53;;
789;SDS011;378;48.844;9.156;2024-01-30T13:34:12;14.85;;;6.43;;
789;SDS011;378;48.844;9.156;2024-01-30T13:36:39;9.70;;;5.20;;
789;SDS011;378;48.844;9.156;2024-01-30T13:39:07;11.48;;;5.63;;
789;SDS011;378;48.844;9.156;2024-01-30T13:41:39;10.68;;;5.72;;
789;SDS011;378;48.844;9.156;2024-01-30T13:44:08;7.45;;;5.03;;
789;SDS011;378;48.844;9.156;2024-01-30T13:46:35;12.52;;;5.22;;
789;SDS011;378;48.844;9.156;2024-01-30T13:49:04;9.23;;;4.53;;
789;SDS011;378;48.844;9.156;2024-01-30T13:51:31;8.25;;;5.03;;
789;SDS011;378;48.844;9.156;2024-01-30T13:53:58;8.15;;;4.57;;
789;SDS011;378;48.844;9.156;2024-01-30T13:56:25;7.82;;;4.55;;
789;SDS011;378;48.844;9.156;2024-01-30T13:58:54;6.90;;;4.20;;
789;SDS011;378;48.844;9.156;2024-01-30T14:01:21;8.15;;;4.18;;
789;SDS011;378;48.844;9.156;2024-01-30T14:03:49;8.18;;;4.60;;
789;SDS011;378;48.844;9.156;2024-01-30T14:06:16;8.75;;;4.50;;
789;SDS011;378;48.844;9.156;2024-01-30T14:08:42;11.95;;;4.82;;
789;SDS011;378;48.844;9.156;2024-01-30T14:11:09;10.60;;;5.38;;
789;SDS011;378;48.844;9.156;2024-01-30T14:13:36;9.10;;;5.28;;
789;SDS011;378;48.844;9.156;2024-01-30T14:16:05;10.45;;;5.82;;
789;SDS011;378;48.844;9.156;2024-01-30T14:18:32;12.18;;;5.82;;
789;SDS011;378;48.844;9.156;2024-01-30T14:20:59;10.77;;;5.85;;
789;SDS011;378;48.844;9.156;2024-01-30T14:23:26;11.68;;;5.53;;
789;SDS011;378;48.844;9.156;2024-01-30T14:25:52;12.07;;;6.32;;
789;SDS011;378;48.844;9.156;2024-01-30T14:28:19;11.73;;;6.28;;
789;SDS011;378;48.844;9.156;2024-01-30T14:30:46;12.82;;;5.85;;
789;SDS011;378;48.844;9.156;2024-01-30T14:33:15;11.00;;;5.72;;
789;SDS011;378;48.844;9.156;2024-01-30T14:35:41;12.02;;;6.28;;
789;SDS011;378;48.844;9.156;2024-01-30T14:38:08;11.10;;;6.18;;
789;SDS011;378;48.844;9.156;2024-01-30T14:40:35;11.93;;;5.75;;
789;SDS011;378;48.844;9.156;2024-01-30T14:43:02;11.40;;;5.43;;
789;SDS011;378;48.844;9.156;2024-01-30T14:45:29;11.57;;;5.82;;
789;SDS011;378;48.844;9.156;2024-01-30T14:47:57;11.57;;;6.13;;
789;SDS011;378;48.844;9.156;2024-01-30T14:50:26;12.18;;;5.57;;
789;SDS011;378;48.844;9.156;2024-01-30T14:52:53;12.75;;;6.03;;
789;SDS011;378;48.844;9.156;2024-01-30T14:55:20;10.27;;;5.10;;
789;SDS011;378;48.844;9.156;2024-01-30T14:57:47;11.55;;;6.10;;
789;SDS011;378;48.844;9.156;2024-01-30T15:00:14;12.93;;;6.15;;
789;SDS011;378;48.844;9.156;2024-01-30T15:02:42;9.15;;;5.50;;
789;SDS011;378;48.844;9.156;2024-01-30T15:05:09;10.02;;;5.57;;
789;SDS011;378;48.844;9.156;2024-01-30T15:07:38;14.30;;;6.47;;
789;SDS011;378;48.844;9.156;2024-01-30T15:10:06;15.88;;;7.05;;
789;SDS011;378;48.844;9.156;2024-01-30T15:12:34;18.77;;;8.93;;
789;SDS011;378;48.844;9.156;2024-01-30T15:15:01;16.75;;;8.35;;
789;SDS011;378;48.844;9.156;2024-01-30T15:17:28;13.15;;;7.40;;
789;SDS011;378;48.844;9.156;2024-01-30T15:19:55;13.27;;;6.85;;
789;SDS011;378;48.844;9.156;2024-01-30T15:22:26;15.27;;;8.50;;
789;SDS011;378;48.844;9.156;2024-01-30T15:24:54;18.95;;;9.65;;
789;SDS011;378;48.844;9.156;2024-01-30T15:27:23;16.17;;;9.43;;
789;SDS011;378;48.844;9.156;2024-01-30T15:29:51;19.35;;;8.63;;
789;SDS011;378;48.844;9.156;2024-01-30T15:32:18;14.40;;;8.43;;
789;SDS011;378;48.844;9.156;2024-01-30T15:34:45;15.30;;;7.88;;
789;SDS011;378;48.844;9.156;2024-01-30T15:37:12;14.23;;;7.68;;
789;SDS011;378;48.844;9.156;2024-01-30T15:39:39;14.80;;;8.60;;
789;SDS011;378;48.844;9.156;2024-01-30T15:42:07;12.80;;;8.23;;
789;SDS011;378;48.844;9.156;2024-01-30T15:44:34;13.98;;;6.82;;
789;SDS011;378;48.844;9.156;2024-01-30T15:47:01;16.60;;;8.00;;
789;SDS011;378;48.844;9.156;2024-01-30T15:49:30;16.15;;;8.18;;
789;SDS011;378;48.844;9.156;2024-01-30T15:51:57;14.65;;;7.78;;
789;SDS011;378;48.844;9.156;2024-01-30T15:54:24;18.83;;;8.20;;
789;SDS011;378;48.844;9.156;2024-01-30T15:56:51;15.10;;;7.95;;
789;SDS011;378;48.844;9.156;2024-01-30T15:59:19;18.17;;;8.68;;
789;SDS011;378;48.844;9.156;2024-01-30T16:01:46;19.27;;;9.15;;
789;SDS011;378;48.844;9.156;2024-01-30T16:04:14;14.75;;;8.48;;
789;SDS011;378;48.844;9.156;2024-01-30T16:06:41;14.02;;;8.07;;
789;SDS011;378;48.844;9.156;2024-01-30T16:09:08;15.75;;;8.90;;
789;SDS011;378;48.844;9.156;2024-01-30T16:11:35;19.35;;;8.65;;
789;SDS011;378;48.844;9.156;2024-01-30T16:14:03;17.15;;;8.50;;
789;SDS011;378;48.844;9.156;2024-01-30T16:16:32;16.20;;;8.75;;
789;SDS011;378;48.844;9.156;2024-01-30T16:18:59;14.35;;;8.18;;
789;SDS011;378;48.844;9.156;2024-01-30T16:21:26;17.33;;;9.13;;
789;SDS011;378;48.844;9.156;2024-01-30T16:23:53;23.55;;;10.38;;
789;SDS011;378;48.844;9.156;2024-01-30T16:26:20;17.38;;;8.73;;
789;SDS011;378;48.844;9.156;2024-01-30T16:28:47;18.92;;;9.43;;
789;SDS011;378;48.844;9.156;2024-01-30T16:31:14;18.50;;;9.45;;
789;SDS011;378;48.844;9.156;2024-01-30T16:33:46;19.33;;;10.35;;
789;SDS011;378;48.844;9.156;2024-01-30T16:36:14;16.48;;;9.00;;
789;SDS011;378;48.844;9.156;2024-01-30T16:38:40;16.83;;;8.70;;